sensor_id;sensor_type;location;lat;lon;timestamp;pressure;altitude;pressure_sealevel;temperature;humidity
32033;BME280;31720;52.638;9.216;2023-04-12T00:02:24;100645.81;;;5.79;100.00
32033;BME280;31720;52.638;9.216;2023-04-12T00:05:26;100638.03;;;5.77;100.00
32033;BME280;31720;52.638;9.216;2023-04-12T00:08:29;100628.50;;;5.76;100.00
32033;BME280;31720;52.638;9.216;2023-04-12T00:11:34;100622.41;;;5.77;100.00
32033;BME280;31720;52.638;9.216;2023-04-12T00:14:35;100605.03;;;5.76;100.00
32033;BME280;31720;52.638;9.216;2023-04-12T00:17:37;100607.31;;;5.85;100.00
32033;BME280;31720;52.638;9.216;2023-04-12T00:20:38;100595.00;;;5.89;100.00
32033;BME280;31720;52.638;9.216;2023-04-12T00:23:41;100596.56;;;5.95;100.00
32033;BME280;31720;52.638;9.216;2023-04-12T00:26:44;100579.88;;;6.00;100.00
32033;BME280;31720;52.638;9.216;2023-04-12T00:29:45;100569.47;;;5.99;100.00
32033;BME280;31720;52.638;9.216;2023-04-12T00:32:46;100572.06;;;5.99;100.00
32033;BME280;31720;52.638;9.216;2023-04-12T00:35:48;100567.88;;;5.95;100.00
32033;BME280;31720;52.638;9.216;2023-04-12T00:38:51;100552.97;;;5.98;100.00
32033;BME280;31720;52.638;9.216;2023-04-12T00:41:52;100541.44;;;6.04;100.00
32033;BME280;31720;52.638;9.216;2023-04-12T00:44:56;100543.97;;;6.07;100.00
32033;BME280;31720;52.638;9.216;2023-04-12T00:47:57;100541.25;;;6.10;100.00
32033;BME280;31720;52.638;9.216;2023-04-12T00:50:59;100543.59;;;6.16;100.00
32033;BME280;31720;52.638;9.216;2023-04-12T00:54:05;100536.63;;;6.17;100.00
32033;BME280;31720;52.638;9.216;2023-04-12T00:57:06;100532.31;;;6.16;100.00
32033;BME280;31720;52.638;9.216;2023-04-12T01:00:09;100519.28;;;6.16;100.00
32033;BME280;31720;52.638;9.216;2023-04-12T01:03:12;100524.25;;;6.22;100.00
32033;BME280;31720;52.638;9.216;2023-04-12T01:06:20;100520.75;;;6.23;100.00
32033;BME280;31720;52.638;9.216;2023-04-12T01:09:35;100514.53;;;6.25;100.00
32033;BME280;31720;52.638;9.216;2023-04-12T01:12:54;100509.31;;;6.25;100.00
32033;BME280;31720;52.638;9.216;2023-04-12T01:16:06;100504.28;;;6.21;100.00
32033;BME280;31720;52.638;9.216;2023-04-12T01:19:22;100493.00;;;6.20;100.00
32033;BME280;31720;52.638;9.216;2023-04-12T01:22:52;100500.66;;;6.25;100.00
32033;BME280;31720;52.638;9.216;2023-04-12T01:26:09;100487.50;;;6.28;100.00
32033;BME280;31720;52.638;9.216;2023-04-12T01:29:14;100488.44;;;6.25;100.00
32033;BME280;31720;52.638;9.216;2023-04-12T01:32:18;100490.47;;;6.19;100.00
32033;BME280;31720;52.638;9.216;2023-04-12T01:35:22;100475.78;;;6.16;100.00
32033;BME280;31720;52.638;9.216;2023-04-12T01:38:25;100475.94;;;6.12;100.00
32033;BME280;31720;52.638;9.216;2023-04-12T01:41:27;100465.50;;;6.12;100.00
32033;BME280;31720;52.638;9.216;2023-04-12T01:44:29;100455.94;;;6.12;100.00
32033;BME280;31720;52.638;9.216;2023-04-12T01:47:32;100453.31;;;6.12;100.00
32033;BME280;31720;52.638;9.216;2023-04-12T01:50:40;100444.66;;;6.12;100.00
32033;BME280;31720;52.638;9.216;2023-04-12T01:53:48;100433.19;;;6.16;100.00
32033;BME280;31720;52.638;9.216;2023-04-12T01:56:55;100430.66;;;6.14;100.00
32033;BME280;31720;52.638;9.216;2023-04-12T02:00:01;100425.44;;;6.14;100.00
32033;BME280;31720;52.638;9.216;2023-04-12T02:03:03;100414.84;;;6.17;100.00
32033;BME280;31720;52.638;9.216;2023-04-12T02:06:06;100407.94;;;6.16;100.00
32033;BME280;31720;52.638;9.216;2023-04-12T02:09:08;100399.25;;;6.16;100.00
32033;BME280;31720;52.638;9.216;2023-04-12T02:12:10;100387.06;;;6.16;100.00
32033;BME280;31720;52.638;9.216;2023-04-12T02:15:13;100383.41;;;6.20;100.00
32033;BME280;31720;52.638;9.216;2023-04-12T02:18:15;100367.19;;;6.14;100.00
32033;BME280;31720;52.638;9.216;2023-04-12T02:21:17;100357.78;;;6.09;100.00
32033;BME280;31720;52.638;9.216;2023-04-12T02:24:18;100358.75;;;6.07;100.00
32033;BME280;31720;52.638;9.216;2023-04-12T02:27:20;100349.03;;;6.10;100.00
32033;BME280;31720;52.638;9.216;2023-04-12T02:30:23;100346.69;;;6.04;100.00
32033;BME280;31720;52.638;9.216;2023-04-12T02:33:24;100351.94;;;6.03;100.00
32033;BME280;31720;52.638;9.216;2023-04-12T02:36:27;100349.31;;;6.04;100.00
32033;BME280;31720;52.638;9.216;2023-04-12T02:39:28;100348.38;;;6.05;100.00
32033;BME280;31720;52.638;9.216;2023-04-12T02:42:31;100335.19;;;6.08;100.00
32033;BME280;31720;52.638;9.216;2023-04-12T02:45:34;100335.06;;;6.12;100.00
32033;BME280;31720;52.638;9.216;2023-04-12T02:48:35;100326.41;;;6.11;100.00
32033;BME280;31720;52.638;9.216;2023-04-12T02:51:36;100324.75;;;6.08;100.00
32033;BME280;31720;52.638;9.216;2023-04-12T02:54:38;100315.41;;;6.04;100.00
32033;BME280;31720;52.638;9.216;2023-04-12T02:57:39;100313.88;;;5.99;100.00
32033;BME280;31720;52.638;9.216;2023-04-12T03:00:44;100303.19;;;6.05;100.00
32033;BME280;31720;52.638;9.216;2023-04-12T03:03:45;100301.09;;;6.13;100.00
32033;BME280;31720;52.638;9.216;2023-04-12T03:06:47;100292.31;;;6.16;100.00
32033;BME280;31720;52.638;9.216;2023-04-12T03:09:53;100288.00;;;6.15;100.00
32033;BME280;31720;52.638;9.216;2023-04-12T03:12:54;100265.84;;;6.04;100.00
32033;BME280;31720;52.638;9.216;2023-04-12T03:15:58;100259.81;;;6.02;100.00
32033;BME280;31720;52.638;9.216;2023-04-12T03:18:59;100256.63;;;5.96;100.00
32033;BME280;31720;52.638;9.216;2023-04-12T03:22:01;100252.31;;;5.95;100.00
32033;BME280;31720;52.638;9.216;2023-04-12T03:25:03;100245.34;;;5.95;100.00
32033;BME280;31720;52.638;9.216;2023-04-12T03:28:06;100234.78;;;5.98;100.00
32033;BME280;31720;52.638;9.216;2023-04-12T03:31:08;100234.19;;;6.12;100.00
32033;BME280;31720;52.638;9.216;2023-04-12T03:34:11;100215.34;;;6.05;100.00
32033;BME280;31720;52.638;9.216;2023-04-12T03:37:13;100210.47;;;5.98;100.00
32033;BME280;31720;52.638;9.216;2023-04-12T03:40:14;100203.25;;;6.04;100.00
32033;BME280;31720;52.638;9.216;2023-04-12T03:43:15;100191.16;;;6.02;100.00
32033;BME280;31720;52.638;9.216;2023-04-12T03:46:18;100188.22;;;6.09;100.00
32033;BME280;31720;52.638;9.216;2023-04-12T03:49:20;100181.88;;;6.15;100.00
32033;BME280;31720;52.638;9.216;2023-04-12T03:52:21;100171.56;;;6.12;100.00
32033;BME280;31720;52.638;9.216;2023-04-12T03:55:23;100172.50;;;6.11;100.00
32033;BME280;31720;52.638;9.216;2023-04-12T03:58:24;100183.66;;;6.15;100.00
32033;BME280;31720;52.638;9.216;2023-04-12T04:01:27;100176.34;;;6.23;100.00
32033;BME280;31720;52.638;9.216;2023-04-12T04:04:28;100175.53;;;6.21;100.00
32033;BME280;31720;52.638;9.216;2023-04-12T04:07:30;100169.47;;;6.20;100.00
32033;BME280;31720;52.638;9.216;2023-04-12T04:10:32;100164.19;;;6.22;100.00
32033;BME280;31720;52.638;9.216;2023-04-12T04:13:33;100159.53;;;6.09;100.00
32033;BME280;31720;52.638;9.216;2023-04-12T04:16:36;100154.44;;;6.06;100.00
32033;BME280;31720;52.638;9.216;2023-04-12T04:19:38;100155.09;;;6.12;100.00
32033;BME280;31720;52.638;9.216;2023-04-12T04:22:39;100151.91;;;6.05;100.00
32033;BME280;31720;52.638;9.216;2023-04-12T04:25:41;100145.06;;;6.02;100.00
32033;BME280;31720;52.638;9.216;2023-04-12T04:28:45;100147.88;;;5.98;100.00
32033;BME280;31720;52.638;9.216;2023-04-12T04:31:50;100145.38;;;5.95;100.00
32033;BME280;31720;52.638;9.216;2023-04-12T04:34:54;100141.03;;;5.95;100.00
32033;BME280;31720;52.638;9.216;2023-04-12T04:37:56;100133.34;;;5.92;100.00
32033;BME280;31720;52.638;9.216;2023-04-12T04:40:57;100127.94;;;5.97;100.00
32033;BME280;31720;52.638;9.216;2023-04-12T04:44:01;100123.84;;;5.90;100.00
32033;BME280;31720;52.638;9.216;2023-04-12T04:47:05;100116.69;;;5.95;100.00
32033;BME280;31720;52.638;9.216;2023-04-12T04:50:08;100113.97;;;5.98;100.00
32033;BME280;31720;52.638;9.216;2023-04-12T04:53:09;100110.31;;;6.02;100.00
32033;BME280;31720;52.638;9.216;2023-04-12T04:56:11;100112.78;;;6.05;100.00
32033;BME280;31720;52.638;9.216;2023-04-12T04:59:12;100108.06;;;6.13;100.00
32033;BME280;31720;52.638;9.216;2023-04-12T05:02:15;100100.38;;;6.10;100.00
32033;BME280;31720;52.638;9.216;2023-04-12T05:05:16;100106.31;;;6.14;100.00
32033;BME280;31720;52.638;9.216;2023-04-12T05:08:22;100096.44;;;6.20;100.00
32033;BME280;31720;52.638;9.216;2023-04-12T05:11:24;100096.22;;;6.25;99.27
32033;BME280;31720;52.638;9.216;2023-04-12T05:14:25;100092.56;;;6.29;99.13
32033;BME280;31720;52.638;9.216;2023-04-12T05:17:28;100088.03;;;6.32;98.87
32033;BME280;31720;52.638;9.216;2023-04-12T05:20:29;100073.09;;;6.36;97.49
32033;BME280;31720;52.638;9.216;2023-04-12T05:23:33;100069.13;;;6.46;97.12
32033;BME280;31720;52.638;9.216;2023-04-12T05:26:35;100059.53;;;6.47;96.90
32033;BME280;31720;52.638;9.216;2023-04-12T05:29:36;100056.94;;;6.47;97.05
32033;BME280;31720;52.638;9.216;2023-04-12T05:32:39;100050.69;;;6.49;97.00
32033;BME280;31720;52.638;9.216;2023-04-12T05:35:40;100053.66;;;6.60;97.78
32033;BME280;31720;52.638;9.216;2023-04-12T05:38:42;100051.56;;;6.50;96.57
32033;BME280;31720;52.638;9.216;2023-04-12T05:41:43;100051.97;;;6.59;97.76
32033;BME280;31720;52.638;9.216;2023-04-12T05:44:45;100043.22;;;6.60;97.75
32033;BME280;31720;52.638;9.216;2023-04-12T05:47:49;100046.53;;;6.64;98.00
32033;BME280;31720;52.638;9.216;2023-04-12T05:50:51;100042.78;;;6.70;98.22
32033;BME280;31720;52.638;9.216;2023-04-12T05:53:52;100042.00;;;6.68;97.93
32033;BME280;31720;52.638;9.216;2023-04-12T05:56:53;100035.03;;;6.68;98.94
32033;BME280;31720;52.638;9.216;2023-04-12T05:59:55;100029.63;;;6.71;100.00
32033;BME280;31720;52.638;9.216;2023-04-12T06:02:58;100025.19;;;6.73;97.99
32033;BME280;31720;52.638;9.216;2023-04-12T06:05:59;100023.13;;;6.80;99.10
32033;BME280;31720;52.638;9.216;2023-04-12T06:09:02;100014.56;;;6.76;98.64
32033;BME280;31720;52.638;9.216;2023-04-12T06:12:04;100014.34;;;6.81;99.04
32033;BME280;31720;52.638;9.216;2023-04-12T06:15:06;100012.28;;;6.88;99.90
32033;BME280;31720;52.638;9.216;2023-04-12T06:18:09;100008.59;;;6.92;100.00
32033;BME280;31720;52.638;9.216;2023-04-12T06:21:12;100005.16;;;6.91;99.18
32033;BME280;31720;52.638;9.216;2023-04-12T06:24:13;99989.06;;;6.99;100.00
32033;BME280;31720;52.638;9.216;2023-04-12T06:27:14;99987.94;;;7.04;100.00
32033;BME280;31720;52.638;9.216;2023-04-12T06:30:17;99986.00;;;7.08;100.00
32033;BME280;31720;52.638;9.216;2023-04-12T06:33:20;99979.69;;;7.12;100.00
32033;BME280;31720;52.638;9.216;2023-04-12T06:36:22;99967.31;;;7.16;100.00
32033;BME280;31720;52.638;9.216;2023-04-12T06:39:23;99947.13;;;7.19;100.00
32033;BME280;31720;52.638;9.216;2023-04-12T06:42:24;99955.56;;;7.24;100.00
32033;BME280;31720;52.638;9.216;2023-04-12T06:45:26;99944.63;;;7.33;100.00
32033;BME280;31720;52.638;9.216;2023-04-12T06:48:29;99932.69;;;7.45;100.00
32033;BME280;31720;52.638;9.216;2023-04-12T06:51:30;99927.78;;;7.55;100.00
32033;BME280;31720;52.638;9.216;2023-04-12T06:54:35;99921.63;;;7.72;100.00
32033;BME280;31720;52.638;9.216;2023-04-12T06:57:36;99920.81;;;7.87;100.00
32033;BME280;31720;52.638;9.216;2023-04-12T07:00:37;99911.34;;;8.00;100.00
32033;BME280;31720;52.638;9.216;2023-04-12T07:03:40;99906.00;;;8.18;100.00
32033;BME280;31720;52.638;9.216;2023-04-12T07:06:42;99908.75;;;8.30;100.00
32033;BME280;31720;52.638;9.216;2023-04-12T07:09:43;99893.38;;;8.40;100.00
32033;BME280;31720;52.638;9.216;2023-04-12T07:12:46;99886.03;;;8.47;100.00
32033;BME280;31720;52.638;9.216;2023-04-12T07:15:48;99873.41;;;8.53;100.00
32033;BME280;31720;52.638;9.216;2023-04-12T07:18:52;99865.66;;;8.66;100.00
32033;BME280;31720;52.638;9.216;2023-04-12T07:21:53;99884.00;;;8.80;100.00
32033;BME280;31720;52.638;9.216;2023-04-12T07:24:55;99868.78;;;8.87;100.00
32033;BME280;31720;52.638;9.216;2023-04-12T07:27:56;99869.19;;;8.95;100.00
32033;BME280;31720;52.638;9.216;2023-04-12T07:30:57;99867.94;;;9.01;100.00
32033;BME280;31720;52.638;9.216;2023-04-12T07:34:00;99859.81;;;9.05;100.00
32033;BME280;31720;52.638;9.216;2023-04-12T07:37:02;99841.91;;;9.12;100.00
32033;BME280;31720;52.638;9.216;2023-04-12T07:40:05;99835.75;;;9.13;100.00
32033;BME280;31720;52.638;9.216;2023-04-12T07:43:06;99832.63;;;9.21;99.89
32033;BME280;31720;52.638;9.216;2023-04-12T07:46:07;99828.78;;;9.26;100.00
32033;BME280;31720;52.638;9.216;2023-04-12T07:49:10;99821.97;;;9.24;98.92
32033;BME280;31720;52.638;9.216;2023-04-12T07:52:11;99814.22;;;9.22;99.86
32033;BME280;31720;52.638;9.216;2023-04-12T07:55:13;99810.44;;;9.26;100.00
32033;BME280;31720;52.638;9.216;2023-04-12T07:58:15;99805.19;;;9.26;100.00
32033;BME280;31720;52.638;9.216;2023-04-12T08:01:17;99806.44;;;9.21;100.00
32033;BME280;31720;52.638;9.216;2023-04-12T08:04:19;99797.34;;;9.12;100.00
32033;BME280;31720;52.638;9.216;2023-04-12T08:07:21;99794.66;;;9.13;100.00
32033;BME280;31720;52.638;9.216;2023-04-12T08:10:23;99795.38;;;9.15;100.00
32033;BME280;31720;52.638;9.216;2023-04-12T08:13:24;99794.56;;;9.15;100.00
32033;BME280;31720;52.638;9.216;2023-04-12T08:16:26;99789.56;;;9.25;100.00
32033;BME280;31720;52.638;9.216;2023-04-12T08:19:28;99783.81;;;9.05;100.00
32033;BME280;31720;52.638;9.216;2023-04-12T08:22:30;99782.78;;;8.94;100.00
32033;BME280;31720;52.638;9.216;2023-04-12T08:25:32;99784.09;;;8.86;100.00
32033;BME280;31720;52.638;9.216;2023-04-12T08:28:33;99784.00;;;8.88;100.00
32033;BME280;31720;52.638;9.216;2023-04-12T08:31:34;99786.63;;;8.88;100.00
32033;BME280;31720;52.638;9.216;2023-04-12T08:34:37;99781.50;;;8.86;100.00
32033;BME280;31720;52.638;9.216;2023-04-12T08:37:39;99772.22;;;8.81;100.00
32033;BME280;31720;52.638;9.216;2023-04-12T08:40:41;99771.28;;;8.82;100.00
32033;BME280;31720;52.638;9.216;2023-04-12T08:43:43;99772.31;;;8.79;100.00
32033;BME280;31720;52.638;9.216;2023-04-12T08:46:46;99777.56;;;8.79;100.00
32033;BME280;31720;52.638;9.216;2023-04-12T08:49:49;99777.84;;;8.75;100.00
32033;BME280;31720;52.638;9.216;2023-04-12T08:52:51;99773.38;;;8.77;100.00
32033;BME280;31720;52.638;9.216;2023-04-12T08:55:53;99769.97;;;8.75;100.00
32033;BME280;31720;52.638;9.216;2023-04-12T08:58:54;99769.88;;;8.76;100.00
32033;BME280;31720;52.638;9.216;2023-04-12T09:01:57;99765.84;;;8.71;100.00
32033;BME280;31720;52.638;9.216;2023-04-12T09:05:00;99755.38;;;8.71;100.00
32033;BME280;31720;52.638;9.216;2023-04-12T09:08:02;99751.47;;;8.63;100.00
32033;BME280;31720;52.638;9.216;2023-04-12T09:11:20;99744.06;;;8.70;100.00
32033;BME280;31720;52.638;9.216;2023-04-12T09:14:24;99738.44;;;8.62;100.00
32033;BME280;31720;52.638;9.216;2023-04-12T09:17:27;99728.63;;;8.66;100.00
32033;BME280;31720;52.638;9.216;2023-04-12T09:20:30;99718.25;;;8.64;100.00
32033;BME280;31720;52.638;9.216;2023-04-12T09:23:31;99717.22;;;8.67;100.00
32033;BME280;31720;52.638;9.216;2023-04-12T09:26:35;99720.34;;;8.59;100.00
32033;BME280;31720;52.638;9.216;2023-04-12T09:29:37;99717.22;;;8.52;100.00
32033;BME280;31720;52.638;9.216;2023-04-12T09:32:38;99720.63;;;8.54;100.00
32033;BME280;31720;52.638;9.216;2023-04-12T09:35:41;99706.31;;;8.46;100.00
32033;BME280;31720;52.638;9.216;2023-04-12T09:38:58;99698.91;;;8.38;100.00
32033;BME280;31720;52.638;9.216;2023-04-12T09:42:04;99693.66;;;8.38;100.00
32033;BME280;31720;52.638;9.216;2023-04-12T09:45:18;99694.34;;;8.42;100.00
32033;BME280;31720;52.638;9.216;2023-04-12T09:48:20;99678.69;;;8.40;100.00
32033;BME280;31720;52.638;9.216;2023-04-12T09:51:28;99687.22;;;8.44;100.00
32033;BME280;31720;52.638;9.216;2023-04-12T09:54:31;99685.06;;;8.50;100.00
32033;BME280;31720;52.638;9.216;2023-04-12T09:57:35;99681.41;;;8.53;100.00
32033;BME280;31720;52.638;9.216;2023-04-12T10:00:38;99679.84;;;8.50;100.00
32033;BME280;31720;52.638;9.216;2023-04-12T10:03:40;99666.25;;;8.58;100.00
32033;BME280;31720;52.638;9.216;2023-04-12T10:06:43;99668.69;;;8.61;100.00
32033;BME280;31720;52.638;9.216;2023-04-12T10:09:45;99660.34;;;8.69;100.00
32033;BME280;31720;52.638;9.216;2023-04-12T10:12:48;99658.19;;;8.75;100.00
32033;BME280;31720;52.638;9.216;2023-04-12T10:15:50;99645.91;;;8.76;100.00
32033;BME280;31720;52.638;9.216;2023-04-12T10:18:53;99645.91;;;8.76;100.00
32033;BME280;31720;52.638;9.216;2023-04-12T10:21:56;99638.06;;;8.76;100.00
32033;BME280;31720;52.638;9.216;2023-04-12T10:24:58;99633.94;;;8.72;100.00
32033;BME280;31720;52.638;9.216;2023-04-12T10:28:12;99628.53;;;8.75;100.00
32033;BME280;31720;52.638;9.216;2023-04-12T10:31:27;99629.59;;;8.72;100.00
32033;BME280;31720;52.638;9.216;2023-04-12T10:34:29;99627.59;;;8.76;100.00
32033;BME280;31720;52.638;9.216;2023-04-12T10:37:59;99623.19;;;8.76;100.00
32033;BME280;31720;52.638;9.216;2023-04-12T10:41:22;99623.66;;;8.83;100.00
32033;BME280;31720;52.638;9.216;2023-04-12T10:44:24;99618.50;;;8.81;100.00
32033;BME280;31720;52.638;9.216;2023-04-12T10:47:54;99615.78;;;8.83;100.00
32033;BME280;31720;52.638;9.216;2023-04-12T10:51:17;99607.28;;;8.79;100.00
32033;BME280;31720;52.638;9.216;2023-04-12T10:54:33;99614.47;;;8.76;100.00
32033;BME280;31720;52.638;9.216;2023-04-12T10:57:45;99609.06;;;8.79;100.00
32033;BME280;31720;52.638;9.216;2023-04-12T11:01:09;99614.41;;;8.77;100.00
32033;BME280;31720;52.638;9.216;2023-04-12T11:04:13;99604.78;;;8.78;100.00
32033;BME280;31720;52.638;9.216;2023-04-12T11:07:15;99605.19;;;8.84;100.00
32033;BME280;31720;52.638;9.216;2023-04-12T11:10:17;99600.19;;;8.81;100.00
32033;BME280;31720;52.638;9.216;2023-04-12T11:13:20;99598.09;;;8.86;100.00
32033;BME280;31720;52.638;9.216;2023-04-12T11:16:22;99612.03;;;8.87;100.00
32033;BME280;31720;52.638;9.216;2023-04-12T11:19:23;99598.00;;;8.88;100.00
32033;BME280;31720;52.638;9.216;2023-04-12T11:22:28;99595.47;;;8.86;100.00
32033;BME280;31720;52.638;9.216;2023-04-12T11:25:30;99586.88;;;8.84;100.00
32033;BME280;31720;52.638;9.216;2023-04-12T11:28:32;99589.47;;;8.84;100.00
32033;BME280;31720;52.638;9.216;2023-04-12T11:31:36;99580.69;;;8.85;100.00
32033;BME280;31720;52.638;9.216;2023-04-12T11:34:39;99573.69;;;8.86;100.00
32033;BME280;31720;52.638;9.216;2023-04-12T11:37:42;99574.94;;;8.93;100.00
32033;BME280;31720;52.638;9.216;2023-04-12T11:40:46;99574.00;;;8.94;100.00
32033;BME280;31720;52.638;9.216;2023-04-12T11:43:48;99574.84;;;8.95;100.00
32033;BME280;31720;52.638;9.216;2023-04-12T11:46:50;99567.13;;;9.06;100.00
32033;BME280;31720;52.638;9.216;2023-04-12T11:49:53;99566.72;;;9.12;100.00
32033;BME280;31720;52.638;9.216;2023-04-12T11:53:08;99567.56;;;9.25;100.00
32033;BME280;31720;52.638;9.216;2023-04-12T11:56:11;99562.97;;;9.29;100.00
32033;BME280;31720;52.638;9.216;2023-04-12T11:59:12;99551.84;;;9.25;100.00
32033;BME280;31720;52.638;9.216;2023-04-12T12:02:14;99549.25;;;9.38;100.00
32033;BME280;31720;52.638;9.216;2023-04-12T12:05:16;99554.47;;;9.25;100.00
32033;BME280;31720;52.638;9.216;2023-04-12T12:08:18;99547.47;;;9.38;100.00
32033;BME280;31720;52.638;9.216;2023-04-12T12:11:22;99541.06;;;9.43;100.00
32033;BME280;31720;52.638;9.216;2023-04-12T12:14:25;99539.41;;;9.42;100.00
32033;BME280;31720;52.638;9.216;2023-04-12T12:17:27;99535.19;;;9.39;100.00
32033;BME280;31720;52.638;9.216;2023-04-12T12:20:28;99534.53;;;9.35;100.00
32033;BME280;31720;52.638;9.216;2023-04-12T12:23:31;99530.47;;;9.44;100.00
32033;BME280;31720;52.638;9.216;2023-04-12T12:26:35;99539.16;;;9.45;100.00
32033;BME280;31720;52.638;9.216;2023-04-12T12:29:37;99531.53;;;9.42;100.00
32033;BME280;31720;52.638;9.216;2023-04-12T12:32:38;99526.47;;;9.38;100.00
32033;BME280;31720;52.638;9.216;2023-04-12T12:35:39;99517.06;;;9.36;100.00
32033;BME280;31720;52.638;9.216;2023-04-12T12:38:41;99522.81;;;9.41;100.00
32033;BME280;31720;52.638;9.216;2023-04-12T12:41:52;99514.84;;;9.43;100.00
32033;BME280;31720;52.638;9.216;2023-04-12T12:44:53;99514.53;;;9.47;100.00
32033;BME280;31720;52.638;9.216;2023-04-12T12:47:57;99505.63;;;9.50;100.00
32033;BME280;31720;52.638;9.216;2023-04-12T12:50:58;99511.91;;;9.47;100.00
32033;BME280;31720;52.638;9.216;2023-04-12T12:54:00;99518.09;;;9.46;100.00
32033;BME280;31720;52.638;9.216;2023-04-12T12:57:02;99506.78;;;9.46;100.00
32033;BME280;31720;52.638;9.216;2023-04-12T13:00:05;99506.66;;;9.47;100.00
32033;BME280;31720;52.638;9.216;2023-04-12T13:03:08;99505.72;;;9.48;100.00
32033;BME280;31720;52.638;9.216;2023-04-12T13:06:10;99501.00;;;9.53;100.00
32033;BME280;31720;52.638;9.216;2023-04-12T13:09:12;99498.03;;;9.58;100.00
32033;BME280;31720;52.638;9.216;2023-04-12T13:12:14;99493.66;;;9.58;100.00
32033;BME280;31720;52.638;9.216;2023-04-12T13:15:16;99488.19;;;9.61;100.00
32033;BME280;31720;52.638;9.216;2023-04-12T13:18:17;99489.66;;;9.65;100.00
32033;BME280;31720;52.638;9.216;2023-04-12T13:21:19;99496.47;;;9.68;100.00
32033;BME280;31720;52.638;9.216;2023-04-12T13:24:20;99492.06;;;9.69;100.00
32033;BME280;31720;52.638;9.216;2023-04-12T13:27:23;99492.59;;;9.74;100.00
32033;BME280;31720;52.638;9.216;2023-04-12T13:30:24;99484.59;;;9.75;100.00
32033;BME280;31720;52.638;9.216;2023-04-12T13:33:26;99488.06;;;9.76;100.00
32033;BME280;31720;52.638;9.216;2023-04-12T13:36:27;99479.34;;;9.75;100.00
32033;BME280;31720;52.638;9.216;2023-04-12T13:39:29;99478.81;;;9.83;100.00
32033;BME280;31720;52.638;9.216;2023-04-12T13:42:32;99473.78;;;9.80;100.00
32033;BME280;31720;52.638;9.216;2023-04-12T13:45:34;99474.41;;;9.83;100.00
32033;BME280;31720;52.638;9.216;2023-04-12T13:48:35;99466.16;;;9.77;100.00
32033;BME280;31720;52.638;9.216;2023-04-12T13:51:37;99472.63;;;9.84;100.00
32033;BME280;31720;52.638;9.216;2023-04-12T13:54:38;99468.22;;;9.84;100.00
32033;BME280;31720;52.638;9.216;2023-04-12T13:57:41;99466.53;;;9.83;100.00
32033;BME280;31720;52.638;9.216;2023-04-12T14:00:42;99469.28;;;9.82;100.00
32033;BME280;31720;52.638;9.216;2023-04-12T14:03:44;99458.53;;;9.85;100.00
32033;BME280;31720;52.638;9.216;2023-04-12T14:06:45;99459.38;;;9.85;100.00
32033;BME280;31720;52.638;9.216;2023-04-12T14:09:46;99448.81;;;9.87;100.00
32033;BME280;31720;52.638;9.216;2023-04-12T14:12:49;99447.22;;;9.84;100.00
32033;BME280;31720;52.638;9.216;2023-04-12T14:15:52;99446.38;;;9.84;100.00
32033;BME280;31720;52.638;9.216;2023-04-12T14:18:53;99447.63;;;9.91;100.00
32033;BME280;31720;52.638;9.216;2023-04-12T14:21:55;99442.38;;;9.91;100.00
32033;BME280;31720;52.638;9.216;2023-04-12T14:24:56;99444.38;;;9.87;100.00
32033;BME280;31720;52.638;9.216;2023-04-12T14:27:59;99439.13;;;9.87;100.00
32033;BME280;31720;52.638;9.216;2023-04-12T14:31:00;99432.94;;;9.88;100.00
32033;BME280;31720;52.638;9.216;2023-04-12T14:34:02;99436.50;;;9.87;100.00
32033;BME280;31720;52.638;9.216;2023-04-12T14:37:03;99438.47;;;9.97;100.00
32033;BME280;31720;52.638;9.216;2023-04-12T14:40:06;99427.44;;;10.04;100.00
32033;BME280;31720;52.638;9.216;2023-04-12T14:43:09;99433.06;;;10.11;100.00
32033;BME280;31720;52.638;9.216;2023-04-12T14:46:11;99430.31;;;10.12;100.00
32033;BME280;31720;52.638;9.216;2023-04-12T14:49:13;99428.31;;;10.16;100.00
32033;BME280;31720;52.638;9.216;2023-04-12T14:52:14;99429.41;;;10.13;100.00
32033;BME280;31720;52.638;9.216;2023-04-12T14:55:16;99412.88;;;10.24;100.00
32033;BME280;31720;52.638;9.216;2023-04-12T14:58:18;99408.19;;;10.40;100.00
32033;BME280;31720;52.638;9.216;2023-04-12T15:01:20;99414.03;;;10.44;100.00
32033;BME280;31720;52.638;9.216;2023-04-12T15:04:22;99427.06;;;10.46;100.00
32033;BME280;31720;52.638;9.216;2023-04-12T15:07:23;99425.72;;;10.40;100.00
32033;BME280;31720;52.638;9.216;2023-04-12T15:10:25;99418.78;;;10.39;100.00
32033;BME280;31720;52.638;9.216;2023-04-12T15:13:28;99413.53;;;10.39;100.00
32033;BME280;31720;52.638;9.216;2023-04-12T15:16:29;99421.31;;;10.40;100.00
32033;BME280;31720;52.638;9.216;2023-04-12T15:19:31;99413.53;;;10.39;100.00
32033;BME280;31720;52.638;9.216;2023-04-12T15:22:33;99412.34;;;10.32;100.00
32033;BME280;31720;52.638;9.216;2023-04-12T15:25:34;99413.25;;;10.31;100.00
32033;BME280;31720;52.638;9.216;2023-04-12T15:28:37;99420.91;;;10.34;100.00
32033;BME280;31720;52.638;9.216;2023-04-12T15:31:38;99424.38;;;10.34;100.00
32033;BME280;31720;52.638;9.216;2023-04-12T15:34:40;99428.25;;;10.41;100.00
32033;BME280;31720;52.638;9.216;2023-04-12T15:37:41;99419.81;;;10.49;100.00
32033;BME280;31720;52.638;9.216;2023-04-12T15:40:43;99417.41;;;10.57;100.00
32033;BME280;31720;52.638;9.216;2023-04-12T15:43:46;99426.59;;;10.52;100.00
32033;BME280;31720;52.638;9.216;2023-04-12T15:46:48;99425.28;;;10.46;100.00
32033;BME280;31720;52.638;9.216;2023-04-12T15:49:49;99425.41;;;10.45;100.00
32033;BME280;31720;52.638;9.216;2023-04-12T15:52:53;99417.06;;;10.51;100.00
32033;BME280;31720;52.638;9.216;2023-04-12T15:55:55;99413.81;;;10.47;100.00
32033;BME280;31720;52.638;9.216;2023-04-12T15:58:58;99415.00;;;10.43;100.00
32033;BME280;31720;52.638;9.216;2023-04-12T16:02:00;99420.38;;;10.41;100.00
32033;BME280;31720;52.638;9.216;2023-04-12T16:05:02;99411.03;;;10.37;100.00